METAR

METAR LDZA 260900Z VRB02KT CAVOK 22/13 Q1015 NOSIG =
METAR LDSP 260900Z 10006KT 070V140 9999 SCT060 21/13 Q1015 NOSIG=
METAR LDDU 260900Z 16005KT 120V230 CAVOK 20/13 Q1016 NOSIG =
METAR LDZD 260900Z 15008KT 9999 -RA FEW040 BKN050 20/12 Q1015 NOSIG =
METAR LDPL 260900Z 10005KT 060V150 CAVOK 20/13 Q1015 NOSIG=
METAR LDOS 260900Z 18005KT 090V230 CAVOK 24/10 Q1015=
METAR LDRI 260900Z 27005KT 210V330 9999 FEW046 21/13 Q1015=
METAR LDLO 260900Z 07006KT CAVOK 21/14 Q1015=

TAF

TAF LDZA 260525Z 2606/2706 VRB02KT CAVOK
                 TX25/2613Z TN15/2704Z
    PROB30 TEMPO 2610/2616 SHRA FEW040TCU=
TAF LDSP 260525Z 2606/2706 VRB02KT 9999 SCT050
                 TX22/2611Z TN15/2701Z
           BECMG 2609/2611 11010KT
           TEMPO 2612/2706 RA=
TAF LDDU 260525Z 2606/2706 09007KT CAVOK
                 TX20/2613Z TN15/2703Z
           TEMPO 2612/2617 15010KT
           TEMPO 2621/2706 RA=
TAF LDZD 260525Z 2606/2706 12005KT CAVOK
                 TX22/2613Z TN15/2703Z
           BECMG 2608/2610 13010KT
           TEMPO 2620/2706 RA=
TAF LDPL 260525Z 2606/2706 09005KT CAVOK
                 TX22/2613Z TN14/2704Z
    PROB30 TEMPO 2610/2616 SHRA FEW030TCU BKN035
           BECMG 2613/2615 13012KT
    PROB30 TEMPO 2622/2702 RA BKN014=
TAF LDOS 260525Z 2606/2706 VRB02KT CAVOK
                 TX25/2613Z TN13/2704Z=
TAF AMD LDSB 252203Z 2522/2618 CNL=
TAF LDRI 260525Z 2606/2706 VRB02KT CAVOK
                 TX22/2613Z TN13/2704Z
           TEMPO 2608/2612 32006KT
    PROB30 TEMPO 2610/2617 SHRA FEW030TCU
    PROB30 TEMPO 2622/2702 RA BKN014=
TAF LDLO 260619Z 2607/2706 05005KT CAVOK
                 TX22/2613Z TN15/2704Z
           BECMG 2611/2613 15012KT=

SIGMET

AIRMET

Remark

Ukoliko se brzina i smjer vjetra ne mogu odrediti zbog privremenog kvara sustava/indikatora,
informacija o vjetru u METAR izvješću bit će prikazana kao "/////KT".

 

Disclaimer

 

In case of temporary system/sensor failure, wind speed and direction data will be represented as "/////KT" in METAR report.

 

         

      Politika MET podataka